Kezdőlap
METAR-TAF:

METAR-TAF

Repülőterek :

Dijon, Franciaország

földrajzi szélesség: 47-16N, földrajzi hosszúság: 005-05E, magasság: 222 m

Jelenlegi meteorológiai megfigyelések

A jelentés 21 perccel ezelõtt készült, 09:00 UTC
Keleti szél 7 kt
Hőmérséklet 3°C
Páratartalom 75%
Légköri nyomás 1041 hPa
Látótávolság 10 km, vagy több
felhőtlen 1500 m magasságban, és nincs gomolyfelhõ

METAR: LFSD 200900Z AUTO 10007KT CAVOK 03/M01 Q1041

Idő: 10:21 (09:21 UTC)


TAF: hiányzik

Meteorológiai megfigyelések és előrejelzések több, mint 4000 repülőtéren (METAR és TAF jelentéseket).

A térképen piros és sárga pontok jelzik az elérhető meteorológiai állomásokat.

Mozgassa az egeret a pont fölött, hogy megjelenjen az állomás neve.

Azután kattintson az időjárási megfigyelések és előrejelzések megtekintéséhez.

A térkép megváltoztatása: kattintson a fekete keresztel jelölt zöld gombra ráközelítéshez, a vonallal jelölt zöld gombra távolításhoz, vagy a zöld nyilakra a szomszédos térképek eléréséhez.


METAR-TAF: